createdAt,value
2022-07-31T00:00:27.810Z,37.49
2022-07-31T00:01:26.687Z,37.59
2022-07-31T00:02:26.676Z,37.39
2022-07-31T00:03:26.776Z,37.39
2022-07-31T00:04:26.659Z,37.29
2022-07-31T00:05:26.651Z,37.49
2022-07-31T00:06:26.634Z,37.98
2022-07-31T00:07:26.620Z,37.88
2022-07-31T00:08:26.610Z,37.59
2022-07-31T00:09:53.681Z,37.88
2022-07-31T00:10:27.617Z,37.88
2022-07-31T00:11:26.578Z,37.88
2022-07-31T00:12:26.565Z,37.88
2022-07-31T00:13:57.972Z,38.08
2022-07-31T00:14:27.542Z,38.08
2022-07-31T00:15:26.530Z,37.98
2022-07-31T00:16:26.536Z,38.08
2022-07-31T00:17:26.510Z,38.08
2022-07-31T00:18:26.500Z,38.08
2022-07-31T00:19:26.487Z,38.37
2022-07-31T00:20:26.476Z,37.90
2022-07-31T00:21:26.465Z,37.68
2022-07-31T00:22:26.505Z,38.08
2022-07-31T00:23:26.442Z,37.68
2022-07-31T00:24:26.435Z,37.98
2022-07-31T00:25:26.422Z,38.49
2022-07-31T00:26:26.410Z,38.00
2022-07-31T00:27:26.399Z,37.80
2022-07-31T00:28:26.393Z,38.20
2022-07-31T00:29:26.377Z,38.08
2022-07-31T00:30:26.366Z,38.29
2022-07-31T00:31:26.355Z,38.29
2022-07-31T00:32:26.343Z,38.29
2022-07-31T00:33:26.332Z,38.39
2022-07-31T00:34:26.341Z,38.00
2022-07-31T00:35:26.309Z,38.00
2022-07-31T00:36:28.493Z,38.10
2022-07-31T00:37:26.287Z,38.29
2022-07-31T00:38:27.130Z,38.29
2022-07-31T00:39:26.265Z,38.20
2022-07-31T00:40:26.259Z,38.20
2022-07-31T00:41:26.244Z,37.90
2022-07-31T00:42:26.234Z,38.87
2022-07-31T00:43:30.691Z,38.39
2022-07-31T00:44:26.237Z,37.88
2022-07-31T00:45:29.111Z,38.59
2022-07-31T00:46:27.218Z,38.00
2022-07-31T00:47:26.177Z,38.79
2022-07-31T00:48:26.169Z,38.39
2022-07-31T00:49:26.230Z,38.49
2022-07-31T00:50:27.143Z,38.59
2022-07-31T00:51:26.133Z,37.88
2022-07-31T00:52:26.135Z,38.69
2022-07-31T00:53:26.110Z,38.77
2022-07-31T00:54:26.101Z,38.59
2022-07-31T00:55:26.088Z,38.49
2022-07-31T00:56:26.079Z,38.69
2022-07-31T00:57:26.066Z,38.79
2022-07-31T00:58:26.063Z,38.59
2022-07-31T00:59:26.044Z,38.69
2022-07-31T01:00:26.033Z,38.69
2022-07-31T01:01:26.140Z,38.37
2022-07-31T01:02:26.012Z,38.89
2022-07-31T01:03:26.001Z,38.69
2022-07-31T01:04:25.994Z,38.87
2022-07-31T01:05:25.976Z,38.57
2022-07-31T01:06:25.967Z,38.28
2022-07-31T01:07:25.954Z,38.59
2022-07-31T01:08:25.943Z,38.47
2022-07-31T01:09:25.938Z,38.98
2022-07-31T01:10:25.942Z,38.29
2022-07-31T01:11:25.911Z,38.37
2022-07-31T01:12:25.901Z,38.29
2022-07-31T01:13:25.888Z,38.37
2022-07-31T01:14:25.881Z,38.47
2022-07-31T01:15:25.867Z,38.47
2022-07-31T01:16:25.862Z,38.57
2022-07-31T01:17:25.845Z,38.59
2022-07-31T01:18:25.834Z,38.59
2022-07-31T01:19:37.940Z,38.59
2022-07-31T01:20:26.810Z,38.77
2022-07-31T01:21:25.800Z,38.69
2022-07-31T01:22:33.760Z,38.67
2022-07-31T01:23:26.777Z,38.79
2022-07-31T01:24:25.767Z,38.49
2022-07-31T01:25:25.757Z,38.39
2022-07-31T01:26:25.745Z,38.37
2022-07-31T01:27:25.733Z,38.39
2022-07-31T01:28:25.767Z,38.49
2022-07-31T01:29:25.711Z,38.49
2022-07-31T01:30:30.438Z,38.98
2022-07-31T01:31:27.612Z,38.49
2022-07-31T01:32:27.621Z,38.29
2022-07-31T01:33:25.668Z,38.29
2022-07-31T01:34:25.663Z,38.79
2022-07-31T01:35:25.649Z,38.69
2022-07-31T01:36:25.633Z,38.79
2022-07-31T01:37:25.623Z,38.79
2022-07-31T01:38:25.612Z,38.79
2022-07-31T01:39:25.600Z,38.69
2022-07-31T01:40:25.596Z,38.69
2022-07-31T01:41:25.579Z,38.79
2022-07-31T01:42:25.570Z,39.38
2022-07-31T01:43:25.557Z,39.38
2022-07-31T01:44:25.545Z,39.18
2022-07-31T01:45:25.533Z,39.18
2022-07-31T01:46:25.544Z,39.09
2022-07-31T01:47:25.511Z,38.98
2022-07-31T01:48:25.500Z,39.09
2022-07-31T01:49:25.576Z,39.28
2022-07-31T01:50:42.230Z,38.79
2022-07-31T01:51:26.471Z,39.58
2022-07-31T01:52:25.458Z,39.38
2022-07-31T01:53:25.445Z,39.58
2022-07-31T01:54:25.433Z,38.79
2022-07-31T01:55:25.424Z,38.89
2022-07-31T01:56:25.411Z,38.89
2022-07-31T01:57:25.416Z,39.09
2022-07-31T01:58:25.390Z,39.18
2022-07-31T01:59:25.378Z,39.28
2022-07-31T02:00:34.465Z,38.79
2022-07-31T02:01:27.442Z,38.79
2022-07-31T02:02:25.347Z,38.98
2022-07-31T02:03:42.970Z,38.79
2022-07-31T02:04:26.327Z,39.38
2022-07-31T02:05:25.313Z,38.69
2022-07-31T02:06:25.301Z,38.79
2022-07-31T02:07:25.289Z,38.69
2022-07-31T02:08:25.280Z,39.38
2022-07-31T02:09:25.274Z,39.58
2022-07-31T02:10:25.258Z,39.28
2022-07-31T02:11:25.247Z,39.48
2022-07-31T02:12:33.240Z,39.78
2022-07-31T02:13:26.222Z,39.78
2022-07-31T02:14:25.213Z,39.68
2022-07-31T02:15:25.207Z,39.28
2022-07-31T02:16:25.190Z,39.58
2022-07-31T02:17:25.181Z,39.68
2022-07-31T02:18:25.168Z,39.09
2022-07-31T02:19:25.156Z,39.68
2022-07-31T02:20:25.147Z,39.38
2022-07-31T02:21:25.155Z,39.38
2022-07-31T02:22:25.123Z,38.98
2022-07-31T02:23:25.111Z,39.38
2022-07-31T02:24:25.101Z,39.38
2022-07-31T02:25:25.091Z,39.38
2022-07-31T02:26:25.079Z,39.58
2022-07-31T02:27:53.942Z,39.28
2022-07-31T02:28:26.056Z,39.58
2022-07-31T02:29:25.046Z,39.97
2022-07-31T02:30:25.034Z,39.78
2022-07-31T02:31:25.023Z,39.78
2022-07-31T02:32:25.015Z,39.78
2022-07-31T02:33:25.047Z,39.97
2022-07-31T02:34:29.266Z,39.68
2022-07-31T02:35:25.984Z,40.17
2022-07-31T02:36:24.967Z,40.17
2022-07-31T02:37:24.958Z,39.97
2022-07-31T02:38:24.945Z,39.78
2022-07-31T02:39:30.072Z,39.78
2022-07-31T02:40:25.923Z,40.17
2022-07-31T02:41:24.911Z,39.97
2022-07-31T02:42:24.900Z,40.17
2022-07-31T02:43:24.890Z,40.07
2022-07-31T02:44:27.212Z,39.97
2022-07-31T02:45:24.876Z,39.78
2022-07-31T02:46:24.861Z,40.07
2022-07-31T02:47:24.845Z,40.17
2022-07-31T02:48:24.839Z,39.78
2022-07-31T02:49:24.899Z,39.99
2022-07-31T02:50:24.813Z,40.17
2022-07-31T02:51:24.806Z,40.17
2022-07-31T02:52:24.791Z,40.17
2022-07-31T02:53:24.780Z,39.87
2022-07-31T02:54:24.769Z,40.07
2022-07-31T02:55:24.757Z,40.17
2022-07-31T02:56:24.748Z,39.68
2022-07-31T02:57:24.756Z,40.19
2022-07-31T02:58:24.727Z,39.38
2022-07-31T02:59:24.712Z,39.38
2022-07-31T03:00:24.780Z,39.60
2022-07-31T03:01:24.739Z,39.68
2022-07-31T03:02:24.679Z,39.48
2022-07-31T03:03:25.672Z,40.09
2022-07-31T03:04:24.655Z,39.58
2022-07-31T03:05:24.645Z,39.87
2022-07-31T03:06:24.635Z,39.68
2022-07-31T03:07:24.624Z,40.19
2022-07-31T03:08:24.611Z,39.70
2022-07-31T03:09:24.616Z,40.09
2022-07-31T03:10:24.589Z,40.19
2022-07-31T03:11:24.578Z,40.29
2022-07-31T03:12:24.568Z,40.07
2022-07-31T03:13:24.556Z,39.78
2022-07-31T03:14:24.545Z,39.68
2022-07-31T03:15:25.571Z,40.09
2022-07-31T03:16:24.523Z,40.29
2022-07-31T03:17:24.512Z,40.07
2022-07-31T03:18:25.501Z,39.79
2022-07-31T03:19:24.491Z,40.07
2022-07-31T03:20:24.479Z,40.29
2022-07-31T03:21:24.474Z,39.89
2022-07-31T03:22:24.457Z,39.78
2022-07-31T03:23:24.445Z,39.89
2022-07-31T03:24:24.436Z,39.78
2022-07-31T03:25:24.422Z,39.89
2022-07-31T03:26:24.412Z,39.79
2022-07-31T03:27:24.407Z,39.79
2022-07-31T03:28:24.390Z,39.89
2022-07-31T03:29:36.120Z,39.79
2022-07-31T03:30:25.573Z,39.79
2022-07-31T03:31:24.356Z,40.09
2022-07-31T03:32:24.345Z,39.89
2022-07-31T03:33:24.374Z,39.89
2022-07-31T03:34:24.323Z,40.29
2022-07-31T03:35:24.362Z,39.89
2022-07-31T03:36:24.307Z,39.79
2022-07-31T03:37:24.294Z,39.79
2022-07-31T03:38:40.672Z,39.60
2022-07-31T03:39:25.297Z,39.60
2022-07-31T03:40:24.259Z,39.89
2022-07-31T03:41:24.247Z,39.89
2022-07-31T03:42:24.235Z,39.78
2022-07-31T03:43:24.228Z,39.89
2022-07-31T03:44:24.212Z,39.70
2022-07-31T03:45:24.216Z,39.70
2022-07-31T03:46:24.191Z,39.58
2022-07-31T03:47:24.179Z,39.58
2022-07-31T03:48:24.168Z,39.78
2022-07-31T03:49:24.227Z,39.87
2022-07-31T03:50:24.146Z,39.78
2022-07-31T03:51:24.139Z,40.09
2022-07-31T03:52:24.123Z,39.60
2022-07-31T03:53:24.113Z,39.79
2022-07-31T03:54:24.101Z,39.99
2022-07-31T03:55:24.090Z,39.99
2022-07-31T03:56:24.079Z,39.87
2022-07-31T03:57:28.772Z,39.78
2022-07-31T03:58:25.056Z,39.78
2022-07-31T03:59:24.046Z,39.87
2022-07-31T04:00:24.035Z,39.70
2022-07-31T04:01:24.122Z,39.68
2022-07-31T04:02:24.025Z,39.70
2022-07-31T04:03:24.007Z,39.68
2022-07-31T04:04:23.989Z,39.68
2022-07-31T04:05:23.979Z,39.58
2022-07-31T04:06:23.968Z,39.70
2022-07-31T04:07:23.958Z,39.97
2022-07-31T04:08:23.946Z,39.78
2022-07-31T04:09:23.956Z,39.58
2022-07-31T04:10:23.925Z,39.78
2022-07-31T04:11:23.912Z,39.68
2022-07-31T04:12:23.901Z,39.58
2022-07-31T04:13:23.890Z,39.58
2022-07-31T04:14:23.880Z,39.87
2022-07-31T04:15:23.875Z,39.58
2022-07-31T04:16:23.856Z,39.68
2022-07-31T04:17:23.846Z,39.58
2022-07-31T04:18:23.835Z,39.97
2022-07-31T04:19:23.827Z,39.78
2022-07-31T04:20:23.812Z,39.78
2022-07-31T04:21:23.830Z,39.97
2022-07-31T04:22:23.790Z,39.78
2022-07-31T04:23:23.778Z,39.68
2022-07-31T04:24:24.772Z,39.97
2022-07-31T04:25:23.757Z,39.97
2022-07-31T04:26:26.169Z,39.97
2022-07-31T04:27:23.751Z,39.68
2022-07-31T04:28:23.725Z,39.97
2022-07-31T04:29:23.713Z,39.97
2022-07-31T04:30:23.704Z,39.97
2022-07-31T04:31:23.691Z,39.78
2022-07-31T04:32:23.678Z,39.87
2022-07-31T04:33:23.673Z,39.87
2022-07-31T04:34:23.656Z,39.97
2022-07-31T04:35:23.648Z,39.97
2022-07-31T04:36:29.944Z,39.58
2022-07-31T04:37:24.622Z,39.70
2022-07-31T04:38:23.613Z,39.68
2022-07-31T04:39:23.624Z,39.97
2022-07-31T04:40:23.589Z,39.68
2022-07-31T04:41:23.579Z,40.07
2022-07-31T04:42:23.567Z,39.68
2022-07-31T04:43:23.557Z,39.87
2022-07-31T04:44:23.546Z,39.89
2022-07-31T04:45:23.559Z,39.58
2022-07-31T04:46:23.523Z,39.78
2022-07-31T04:47:23.511Z,39.78
2022-07-31T04:48:23.503Z,39.97
2022-07-31T04:49:23.517Z,39.97
2022-07-31T04:50:23.478Z,39.68
2022-07-31T04:51:23.474Z,39.87
2022-07-31T04:52:23.457Z,39.78
2022-07-31T04:53:23.446Z,39.68
2022-07-31T04:54:23.436Z,39.87
2022-07-31T04:55:23.424Z,39.97
2022-07-31T04:56:23.412Z,39.78
2022-07-31T04:57:23.417Z,39.97
2022-07-31T04:58:23.392Z,39.97
2022-07-31T04:59:23.380Z,39.68
2022-07-31T05:00:24.368Z,39.68
2022-07-31T05:01:23.409Z,39.78
2022-07-31T05:02:23.345Z,40.07
2022-07-31T05:03:23.364Z,40.07
2022-07-31T05:04:23.324Z,39.68
2022-07-31T05:05:23.312Z,39.87
2022-07-31T05:06:23.300Z,39.87
2022-07-31T05:07:23.289Z,39.78
2022-07-31T05:08:23.280Z,39.68
2022-07-31T05:09:23.617Z,40.07
2022-07-31T05:10:23.257Z,39.68
2022-07-31T05:11:23.246Z,39.97
2022-07-31T05:12:23.235Z,39.68
2022-07-31T05:13:23.224Z,39.68
2022-07-31T05:14:23.218Z,39.68
2022-07-31T05:15:23.208Z,39.87
2022-07-31T05:16:23.190Z,39.97
2022-07-31T05:17:23.178Z,39.68
2022-07-31T05:18:23.169Z,39.68
2022-07-31T05:19:23.158Z,39.97
2022-07-31T05:20:23.146Z,40.07
2022-07-31T05:21:23.156Z,39.97
2022-07-31T05:22:23.126Z,39.68
2022-07-31T05:23:23.112Z,39.68
2022-07-31T05:24:33.386Z,40.07
2022-07-31T05:25:24.090Z,39.97
2022-07-31T05:26:23.079Z,39.68
2022-07-31T05:27:23.074Z,40.07
2022-07-31T05:28:29.990Z,39.87
2022-07-31T05:29:24.044Z,39.78
2022-07-31T05:30:30.182Z,39.58
2022-07-31T05:31:24.022Z,39.68
2022-07-31T05:32:23.017Z,39.68
2022-07-31T05:33:23.017Z,39.68
2022-07-31T05:34:22.992Z,39.87
2022-07-31T05:35:22.980Z,39.68
2022-07-31T05:36:22.968Z,39.97
2022-07-31T05:37:22.957Z,39.78
2022-07-31T05:38:22.946Z,39.58
2022-07-31T05:39:22.964Z,39.97
2022-07-31T05:40:22.924Z,40.07
2022-07-31T05:41:22.911Z,39.78
2022-07-31T05:42:22.901Z,39.87
2022-07-31T05:43:22.891Z,39.68
2022-07-31T05:44:22.887Z,39.68
2022-07-31T05:45:22.890Z,39.76
2022-07-31T05:46:22.856Z,39.68
2022-07-31T05:47:22.846Z,39.65
2022-07-31T05:48:22.833Z,39.78
2022-07-31T05:49:22.878Z,39.65
2022-07-31T05:50:22.814Z,39.68
2022-07-31T05:51:22.809Z,39.65
2022-07-31T05:52:22.789Z,39.68
2022-07-31T05:53:22.778Z,39.97
2022-07-31T05:54:22.771Z,39.65
2022-07-31T05:55:22.756Z,39.68
2022-07-31T05:56:22.746Z,40.05
2022-07-31T05:57:26.466Z,39.78
2022-07-31T05:58:23.723Z,39.86
2022-07-31T05:59:22.718Z,39.68
2022-07-31T06:00:22.700Z,39.87
2022-07-31T06:01:22.772Z,39.87
2022-07-31T06:02:22.680Z,39.87
2022-07-31T06:03:22.698Z,39.78
2022-07-31T06:04:22.655Z,39.76
2022-07-31T06:05:22.645Z,39.97
2022-07-31T06:06:22.636Z,39.76
2022-07-31T06:07:22.626Z,39.87
2022-07-31T06:08:22.612Z,39.65
2022-07-31T06:09:22.607Z,39.87
2022-07-31T06:10:22.590Z,40.05
2022-07-31T06:11:22.578Z,39.76
2022-07-31T06:12:22.569Z,39.68
2022-07-31T06:13:22.558Z,39.78
2022-07-31T06:14:22.546Z,39.87
2022-07-31T06:15:22.550Z,39.95
2022-07-31T06:16:22.523Z,40.05
2022-07-31T06:17:22.549Z,39.97
2022-07-31T06:18:22.501Z,39.68
2022-07-31T06:19:24.374Z,39.87
2022-07-31T06:20:22.479Z,39.78
2022-07-31T06:21:22.474Z,39.65
2022-07-31T06:22:22.458Z,39.87
2022-07-31T06:23:27.887Z,39.78
2022-07-31T06:24:23.437Z,39.78
2022-07-31T06:25:22.423Z,39.65
2022-07-31T06:26:23.135Z,39.68
2022-07-31T06:27:33.401Z,39.58
2022-07-31T06:28:26.069Z,39.95
2022-07-31T06:29:23.854Z,39.78
2022-07-31T06:30:23.368Z,39.56
2022-07-31T06:31:22.360Z,39.58
2022-07-31T06:32:22.345Z,39.95
2022-07-31T06:33:37.785Z,39.78
2022-07-31T06:34:23.324Z,39.86
2022-07-31T06:35:22.314Z,39.56
2022-07-31T06:36:22.301Z,39.76
2022-07-31T06:37:22.290Z,39.58
2022-07-31T06:38:22.279Z,39.65
2022-07-31T06:39:22.299Z,39.76
2022-07-31T06:40:22.259Z,39.86
2022-07-31T06:41:22.247Z,39.76
2022-07-31T06:42:22.234Z,39.65
2022-07-31T06:43:22.225Z,39.86
2022-07-31T06:44:22.213Z,39.76
2022-07-31T06:45:41.892Z,40.05
2022-07-31T06:46:23.192Z,39.95
2022-07-31T06:47:22.179Z,40.25
2022-07-31T06:48:22.170Z,40.15
2022-07-31T06:49:22.246Z,40.05
2022-07-31T06:50:22.148Z,40.25
2022-07-31T06:51:31.180Z,40.05
2022-07-31T06:52:23.123Z,40.25
2022-07-31T06:53:22.112Z,40.05
2022-07-31T06:54:22.103Z,40.25
2022-07-31T06:55:22.090Z,40.25
2022-07-31T06:56:22.079Z,40.05
2022-07-31T06:57:22.074Z,39.65
2022-07-31T06:58:22.058Z,40.25
2022-07-31T06:59:39.188Z,39.65
2022-07-31T07:00:23.034Z,40.15
2022-07-31T07:01:22.127Z,40.05
2022-07-31T07:02:22.013Z,40.25
2022-07-31T07:03:22.008Z,40.25
2022-07-31T07:04:21.993Z,40.15
2022-07-31T07:05:22.982Z,40.05
2022-07-31T07:06:21.968Z,40.25
2022-07-31T07:07:21.961Z,39.56
2022-07-31T07:08:21.947Z,40.05
2022-07-31T07:09:21.941Z,39.56
2022-07-31T07:10:21.924Z,39.46
2022-07-31T07:11:21.917Z,39.36
2022-07-31T07:12:21.901Z,40.25
2022-07-31T07:13:21.890Z,39.56
2022-07-31T07:14:21.879Z,39.76
2022-07-31T07:15:21.902Z,39.76
2022-07-31T07:16:21.859Z,39.76
2022-07-31T07:17:25.921Z,39.36
2022-07-31T07:18:22.835Z,39.86
2022-07-31T07:19:21.824Z,39.76
2022-07-31T07:20:21.815Z,39.36
2022-07-31T07:21:21.819Z,40.05
2022-07-31T07:22:31.683Z,39.36
2022-07-31T07:23:22.779Z,39.76
2022-07-31T07:24:21.768Z,40.05
2022-07-31T07:25:21.761Z,39.76
2022-07-31T07:26:21.749Z,39.86
2022-07-31T07:27:21.741Z,40.15
2022-07-31T07:28:31.144Z,39.76
2022-07-31T07:29:22.714Z,40.15
2022-07-31T07:30:21.745Z,40.15
2022-07-31T07:31:21.691Z,40.15
2022-07-31T07:32:21.679Z,39.95
2022-07-31T07:33:39.759Z,40.15
2022-07-31T07:34:22.657Z,40.15
2022-07-31T07:35:21.649Z,39.76
2022-07-31T07:36:23.832Z,40.13
2022-07-31T07:37:21.626Z,39.56
2022-07-31T07:38:21.614Z,39.54
2022-07-31T07:39:21.622Z,39.46
2022-07-31T07:40:21.655Z,39.46
2022-07-31T07:41:21.579Z,39.65
2022-07-31T07:42:21.568Z,39.56
2022-07-31T07:43:21.558Z,39.65
2022-07-31T07:44:21.547Z,39.65
2022-07-31T07:45:21.541Z,39.46
2022-07-31T07:46:21.525Z,39.54
2022-07-31T07:47:21.514Z,39.94
2022-07-31T07:48:21.503Z,39.73
2022-07-31T07:49:21.586Z,39.94
2022-07-31T07:50:21.515Z,39.94
2022-07-31T07:51:21.514Z,39.15
2022-07-31T07:52:21.459Z,39.56
2022-07-31T07:53:21.449Z,39.34
2022-07-31T07:54:21.436Z,39.73
2022-07-31T07:55:21.425Z,39.64
2022-07-31T07:56:21.416Z,39.84
2022-07-31T07:57:21.418Z,39.54
2022-07-31T07:58:21.392Z,39.34
2022-07-31T07:59:21.380Z,39.34
2022-07-31T08:00:21.463Z,39.54
2022-07-31T08:01:21.420Z,39.73
2022-07-31T08:02:21.347Z,39.44
2022-07-31T08:03:49.801Z,38.75
2022-07-31T08:04:22.326Z,38.65
2022-07-31T08:05:21.314Z,39.25
2022-07-31T08:06:21.304Z,38.75
2022-07-31T08:07:21.293Z,38.65
2022-07-31T08:08:21.280Z,38.65
2022-07-31T08:09:21.274Z,38.56
2022-07-31T08:10:21.257Z,38.85
2022-07-31T08:11:21.249Z,38.85
2022-07-31T08:12:21.237Z,38.95
2022-07-31T08:13:21.227Z,38.75
2022-07-31T08:14:21.214Z,39.25
2022-07-31T08:15:21.209Z,39.15
2022-07-31T08:16:21.191Z,39.34
2022-07-31T08:17:21.180Z,39.25
2022-07-31T08:18:21.170Z,39.25
2022-07-31T08:19:21.159Z,39.15
2022-07-31T08:20:21.147Z,39.04
2022-07-31T08:21:21.143Z,39.15
2022-07-31T08:22:21.126Z,38.95
2022-07-31T08:23:21.115Z,39.44
2022-07-31T08:24:21.103Z,38.75
2022-07-31T08:25:21.092Z,38.83
2022-07-31T08:26:21.081Z,39.12
2022-07-31T08:27:21.518Z,38.85
2022-07-31T08:28:24.143Z,39.04
2022-07-31T08:29:26.500Z,39.12
2022-07-31T08:30:22.036Z,38.85
2022-07-31T08:31:21.077Z,38.85
2022-07-31T08:32:21.016Z,39.03
2022-07-31T08:33:21.036Z,39.12
2022-07-31T08:34:31.208Z,39.23
2022-07-31T08:35:21.981Z,39.12
2022-07-31T08:36:20.971Z,39.12
2022-07-31T08:37:50.861Z,38.83
2022-07-31T08:38:21.954Z,38.73
2022-07-31T08:39:21.136Z,38.73
2022-07-31T08:40:20.927Z,38.73
2022-07-31T08:41:20.916Z,38.64
2022-07-31T08:42:20.905Z,38.73
2022-07-31T08:44:27.088Z,38.64
2022-07-31T08:45:22.692Z,38.73
2022-07-31T08:46:20.862Z,39.12
2022-07-31T08:47:20.849Z,38.83
2022-07-31T08:48:20.838Z,39.12
2022-07-31T08:49:20.873Z,38.34
2022-07-31T08:50:20.822Z,38.43
2022-07-31T08:51:20.805Z,38.34
2022-07-31T08:52:20.794Z,38.43
2022-07-31T08:53:20.783Z,38.24
2022-07-31T08:54:20.774Z,38.83
2022-07-31T08:55:24.824Z,38.64
2022-07-31T08:56:21.769Z,38.73
2022-07-31T08:57:20.739Z,38.73
2022-07-31T08:58:20.728Z,38.64
2022-07-31T08:59:20.717Z,38.64
2022-07-31T09:00:20.707Z,38.54
2022-07-31T09:01:20.752Z,38.64
2022-07-31T09:02:20.711Z,38.43
2022-07-31T09:03:20.673Z,38.43
2022-07-31T09:04:20.661Z,38.43
2022-07-31T09:05:20.650Z,38.54
2022-07-31T09:06:20.639Z,38.62
2022-07-31T09:07:20.627Z,38.73
2022-07-31T09:08:20.635Z,38.34
2022-07-31T09:09:20.604Z,38.54
2022-07-31T09:10:20.597Z,38.91
2022-07-31T09:11:20.583Z,38.51
2022-07-31T09:12:20.575Z,38.71
2022-07-31T09:13:21.567Z,38.71
2022-07-31T09:14:20.551Z,38.71
2022-07-31T09:15:20.544Z,38.62
2022-07-31T09:16:24.189Z,38.62
2022-07-31T09:17:21.515Z,38.62
2022-07-31T09:18:20.506Z,38.71
2022-07-31T09:19:51.741Z,38.51
2022-07-31T09:20:21.482Z,38.51
2022-07-31T09:21:20.473Z,38.62
2022-07-31T09:22:20.461Z,38.81
2022-07-31T09:23:20.450Z,38.62
2022-07-31T09:24:20.441Z,38.51
2022-07-31T09:25:20.436Z,38.32
2022-07-31T09:26:20.418Z,37.93
2022-07-31T09:27:20.409Z,37.83
2022-07-31T09:28:24.992Z,38.42
2022-07-31T09:29:20.385Z,38.02
2022-07-31T09:30:20.375Z,38.32
2022-07-31T09:31:20.367Z,38.32
2022-07-31T09:32:20.353Z,38.91
2022-07-31T09:33:20.342Z,37.91
2022-07-31T09:34:20.330Z,38.12
2022-07-31T09:35:20.318Z,38.02
2022-07-31T09:36:20.307Z,38.22
2022-07-31T09:37:20.326Z,38.22
2022-07-31T09:38:20.284Z,37.93
2022-07-31T09:39:24.708Z,38.22
2022-07-31T09:40:21.472Z,38.02
2022-07-31T09:41:56.438Z,38.12
2022-07-31T09:42:21.248Z,37.53
2022-07-31T09:43:20.233Z,38.12
2022-07-31T09:44:20.326Z,37.91
2022-07-31T09:45:21.206Z,37.61
2022-07-31T09:46:20.213Z,37.61
2022-07-31T09:47:20.186Z,37.81
2022-07-31T09:48:26.847Z,38.01
2022-07-31T09:49:21.214Z,38.20
2022-07-31T09:50:20.154Z,38.10
2022-07-31T09:51:20.140Z,37.81
2022-07-31T09:52:20.129Z,37.81
2022-07-31T09:53:20.119Z,37.02
2022-07-31T09:54:20.113Z,37.91
2022-07-31T09:55:20.098Z,37.51
2022-07-31T09:56:20.085Z,37.32
2022-07-31T09:57:20.075Z,37.41
2022-07-31T09:58:20.064Z,37.22
2022-07-31T09:59:20.058Z,37.51
2022-07-31T10:00:20.063Z,37.61
2022-07-31T10:01:20.088Z,37.41
2022-07-31T10:02:20.022Z,37.30
2022-07-31T10:03:20.009Z,37.79
2022-07-31T10:04:19.997Z,37.79
2022-07-31T10:05:19.986Z,37.81
2022-07-31T10:06:19.980Z,37.79
2022-07-31T10:07:32.542Z,37.81
2022-07-31T10:08:20.951Z,37.71
2022-07-31T10:09:19.941Z,37.59
2022-07-31T10:10:19.931Z,37.20
2022-07-31T10:11:19.921Z,37.40
2022-07-31T10:12:19.938Z,37.59
2022-07-31T10:13:19.897Z,37.49
2022-07-31T10:14:19.887Z,37.69
2022-07-31T10:15:19.879Z,37.40
2022-07-31T10:16:19.864Z,37.59
2022-07-31T10:17:19.854Z,37.20
2022-07-31T10:18:19.853Z,37.49
2022-07-31T10:19:20.831Z,38.28
2022-07-31T10:20:19.827Z,37.69
2022-07-31T10:21:19.810Z,37.97
2022-07-31T10:22:19.800Z,37.18
2022-07-31T10:23:19.788Z,37.69
2022-07-31T10:24:19.797Z,37.67
2022-07-31T10:25:19.765Z,37.08
2022-07-31T10:26:19.753Z,36.88
2022-07-31T10:27:19.743Z,36.99
2022-07-31T10:28:19.734Z,36.79
2022-07-31T10:29:19.720Z,37.07
2022-07-31T10:30:19.716Z,36.88
2022-07-31T10:31:19.700Z,37.07
2022-07-31T10:32:19.695Z,36.97
2022-07-31T10:33:42.562Z,37.16
2022-07-31T10:34:20.665Z,37.16
2022-07-31T10:35:19.655Z,36.97
2022-07-31T10:36:19.651Z,36.87
2022-07-31T10:37:19.632Z,36.67
2022-07-31T10:38:19.624Z,36.67
2022-07-31T10:39:19.616Z,36.47
2022-07-31T10:40:19.599Z,36.36
2022-07-31T10:41:19.588Z,36.36
2022-07-31T10:42:19.583Z,36.18
2022-07-31T10:43:19.565Z,36.26
2022-07-31T10:44:19.555Z,36.16
2022-07-31T10:45:19.545Z,36.46
2022-07-31T10:46:19.533Z,36.36
2022-07-31T10:47:19.520Z,36.16
2022-07-31T10:48:19.526Z,36.55
2022-07-31T10:49:19.532Z,36.26
2022-07-31T10:50:19.490Z,36.26
2022-07-31T10:51:19.479Z,36.16
2022-07-31T10:52:19.466Z,36.07
2022-07-31T10:53:19.461Z,36.07
2022-07-31T10:54:19.473Z,35.87
2022-07-31T10:55:19.434Z,36.07
2022-07-31T10:56:19.425Z,36.07
2022-07-31T10:57:19.411Z,36.07
2022-07-31T10:58:19.400Z,36.74
2022-07-31T10:59:19.388Z,36.24
2022-07-31T11:00:19.399Z,36.24
2022-07-31T11:01:19.477Z,36.15
2022-07-31T11:02:19.356Z,36.54
2022-07-31T11:03:19.348Z,35.83
2022-07-31T11:04:19.334Z,36.13
2022-07-31T11:05:19.322Z,36.22
2022-07-31T11:06:19.334Z,35.64
2022-07-31T11:07:19.301Z,35.82
2022-07-31T11:08:19.290Z,35.03
2022-07-31T11:09:19.279Z,36.11
2022-07-31T11:10:19.268Z,36.32
2022-07-31T11:11:22.472Z,36.22
2022-07-31T11:12:20.250Z,35.83
2022-07-31T11:13:19.237Z,36.42
2022-07-31T11:14:19.222Z,36.22
2022-07-31T11:15:19.211Z,36.30
2022-07-31T11:16:19.202Z,35.80
2022-07-31T11:17:19.190Z,35.21
2022-07-31T11:18:26.383Z,35.31
2022-07-31T11:19:20.168Z,35.33
2022-07-31T11:20:19.157Z,35.11
2022-07-31T11:21:37.518Z,35.68
2022-07-31T11:22:30.862Z,34.49
2022-07-31T11:23:20.123Z,35.08
2022-07-31T11:24:19.132Z,34.38
2022-07-31T11:25:19.104Z,34.55
2022-07-31T11:26:19.092Z,34.36
2022-07-31T11:27:20.078Z,34.44
2022-07-31T11:28:19.190Z,33.85
2022-07-31T11:30:00.202Z,33.65
2022-07-31T11:30:20.067Z,33.34
2022-07-31T11:31:19.035Z,33.15
2022-07-31T11:32:25.978Z,33.04
2022-07-31T11:33:20.013Z,32.55
2022-07-31T11:34:19.003Z,33.04
2022-07-31T11:35:18.991Z,33.12
2022-07-31T11:36:18.988Z,32.04
2022-07-31T11:37:18.971Z,32.34
2022-07-31T11:38:18.959Z,32.34
2022-07-31T11:39:18.952Z,32.71
2022-07-31T11:40:19.935Z,32.65
2022-07-31T11:41:22.097Z,33.05
2022-07-31T11:42:18.921Z,33.17
2022-07-31T11:43:26.624Z,34.26
2022-07-31T11:44:19.893Z,33.75
2022-07-31T11:45:18.882Z,34.45
2022-07-31T11:46:18.870Z,34.77
2022-07-31T11:48:09.676Z,34.67
2022-07-31T11:48:19.855Z,34.28
2022-07-31T11:49:18.852Z,34.39
2022-07-31T11:50:18.825Z,35.08
2022-07-31T11:51:18.819Z,34.47
2022-07-31T11:52:31.193Z,33.95
2022-07-31T11:53:19.797Z,32.95
2022-07-31T11:54:18.810Z,33.34
2022-07-31T11:55:18.772Z,32.55
2022-07-31T11:56:18.759Z,32.55
2022-07-31T11:57:18.749Z,32.92
2022-07-31T11:58:18.743Z,32.92
2022-07-31T11:59:44.688Z,33.05
2022-07-31T12:00:27.053Z,33.04
2022-07-31T12:01:19.703Z,32.63
2022-07-31T12:02:18.764Z,32.31
2022-07-31T12:03:18.684Z,31.52
2022-07-31T12:04:18.671Z,31.40
2022-07-31T12:05:18.661Z,30.99
2022-07-31T12:06:19.685Z,30.90
2022-07-31T12:07:18.638Z,31.19
2022-07-31T12:08:18.638Z,31.17
2022-07-31T12:10:00.805Z,31.27
2022-07-31T12:10:19.604Z,30.58
2022-07-31T12:11:18.602Z,30.78
2022-07-31T12:12:18.588Z,30.78
2022-07-31T12:13:18.572Z,30.39
2022-07-31T12:14:18.564Z,30.49
2022-07-31T12:15:18.550Z,30.58
2022-07-31T12:16:18.545Z,30.91
2022-07-31T12:17:18.531Z,31.48
2022-07-31T12:18:18.522Z,30.80
2022-07-31T12:19:18.508Z,31.30
2022-07-31T12:20:29.970Z,31.92
2022-07-31T12:21:19.483Z,32.23
2022-07-31T12:22:18.474Z,32.34
2022-07-31T12:23:40.678Z,32.92
2022-07-31T12:24:19.466Z,32.75
2022-07-31T12:25:18.440Z,32.45
2022-07-31T12:26:18.430Z,33.04
2022-07-31T12:27:18.420Z,32.73
2022-07-31T12:28:18.408Z,32.23
2022-07-31T12:29:18.398Z,32.23
2022-07-31T12:30:18.415Z,31.60
2022-07-31T12:31:18.374Z,31.88
2022-07-31T12:32:18.362Z,30.70
2022-07-31T12:33:18.351Z,31.80
2022-07-31T12:34:18.342Z,32.21
2022-07-31T12:35:18.330Z,32.23
2022-07-31T12:36:18.330Z,33.02
2022-07-31T12:37:18.307Z,32.75
2022-07-31T12:38:37.687Z,32.75
2022-07-31T12:39:19.284Z,33.15
2022-07-31T12:40:18.278Z,32.95
2022-07-31T12:41:18.266Z,32.97
2022-07-31T12:42:18.260Z,33.95
2022-07-31T12:43:18.245Z,33.85
2022-07-31T12:44:21.584Z,34.05
2022-07-31T12:45:19.982Z,33.97
2022-07-31T12:46:18.212Z,34.36
2022-07-31T12:47:18.198Z,34.57
2022-07-31T12:48:18.193Z,33.97
2022-07-31T12:49:18.254Z,34.14
2022-07-31T12:50:18.165Z,34.45
2022-07-31T12:51:18.154Z,34.38
2022-07-31T12:52:18.143Z,33.98
2022-07-31T12:53:18.132Z,34.47